AFL2122 UUEE-LTBS
Flight info
| Callsign | AFL2122 |
|---|---|
| Flight time | N/A |
| Altitude | 33000 |
| Route | TOGMO3H TOGMO M56 ABAGI B105 NIMTA/K0861F340 B105 NATIT/K0857F330 DCT MOLED/K0859F350 DCT SL DCT SUBED DCT LIDUS/K0852F340 G242 ZG/K0857F350 DCT ITAKA/K0856F340 DCT KUDAS/K0859F360 DCT PINMU A955 LURIS/N0463F360 N37 SARPI UG67 TBN UM11 CRM UW71 BUK UM853 AYT UW79 ALTIN |
| Aircraft | B738/M-SDE2E3FGHIRWXY/LB1 |
Departure
| Time | N/A |
|---|---|
| Airport | Sheremetyevo International Airport (UUEE) |
Arrival
| Time | 2026-04-28 22:31 |
|---|---|
| Airport | Dalaman International Airport (LTBS) |
| Time | Latitude | Longitude | Altitude | Speed | Heading |
|---|---|---|---|---|---|
| 2026-04-28 21:41 | 40.01653 | 32.95551 | 36055 ft | 451 kts | 213° |
| 2026-04-28 21:41 | 39.96203 | 32.91487 | 36037 ft | 450 kts | 212° |
| 2026-04-28 21:42 | 39.90749 | 32.87472 | 36038 ft | 450 kts | 212° |
| 2026-04-28 21:42 | 39.85312 | 32.83493 | 36047 ft | 451 kts | 212° |
| 2026-04-28 21:43 | 39.79830 | 32.79490 | 36044 ft | 452 kts | 212° |
| 2026-04-28 21:43 | 39.74328 | 32.75478 | 36051 ft | 454 kts | 212° |
| 2026-04-28 21:44 | 39.68808 | 32.71460 | 36042 ft | 455 kts | 212° |
| 2026-04-28 21:44 | 39.63271 | 32.67436 | 36046 ft | 457 kts | 212° |
| 2026-04-28 21:45 | 39.57715 | 32.63407 | 36048 ft | 458 kts | 212° |
| 2026-04-28 21:45 | 39.52148 | 32.59378 | 36036 ft | 459 kts | 212° |
| 2026-04-28 21:46 | 39.46612 | 32.55379 | 36048 ft | 459 kts | 212° |
| 2026-04-28 21:46 | 39.41327 | 32.51567 | 36046 ft | 459 kts | 212° |
| 2026-04-28 21:47 | 39.35745 | 32.47549 | 36042 ft | 459 kts | 212° |
| 2026-04-28 21:47 | 39.30160 | 32.43535 | 36044 ft | 459 kts | 212° |
| 2026-04-28 21:48 | 39.24583 | 32.39535 | 36050 ft | 458 kts | 212° |
| 2026-04-28 21:48 | 39.19015 | 32.35548 | 36044 ft | 458 kts | 212° |
| 2026-04-28 21:49 | 39.13434 | 32.31560 | 36049 ft | 458 kts | 212° |
| 2026-04-28 21:49 | 39.07860 | 32.27584 | 36061 ft | 458 kts | 212° |
| 2026-04-28 21:50 | 39.02282 | 32.23612 | 36046 ft | 458 kts | 212° |
| 2026-04-28 21:50 | 38.96701 | 32.19645 | 36054 ft | 459 kts | 212° |
| 2026-04-28 21:51 | 38.91114 | 32.15681 | 36064 ft | 459 kts | 212° |
| 2026-04-28 21:51 | 38.85522 | 32.11721 | 36058 ft | 459 kts | 212° |
| 2026-04-28 21:52 | 38.79935 | 32.07772 | 36057 ft | 459 kts | 212° |
| 2026-04-28 21:52 | 38.74338 | 32.03822 | 36055 ft | 459 kts | 211° |
| 2026-04-28 21:53 | 38.68778 | 31.99906 | 36069 ft | 459 kts | 212° |
| 2026-04-28 21:53 | 38.63183 | 31.95972 | 36069 ft | 459 kts | 211° |
| 2026-04-28 21:54 | 38.57578 | 31.92038 | 36059 ft | 459 kts | 211° |
| 2026-04-28 21:54 | 38.51976 | 31.88114 | 36056 ft | 459 kts | 211° |
| 2026-04-28 21:55 | 38.46378 | 31.84199 | 36068 ft | 459 kts | 211° |
| 2026-04-28 21:55 | 38.40780 | 31.80291 | 36054 ft | 458 kts | 211° |
| 2026-04-28 21:56 | 38.35183 | 31.76390 | 36057 ft | 458 kts | 211° |
| 2026-04-28 21:56 | 38.29583 | 31.72495 | 36067 ft | 458 kts | 211° |
| 2026-04-28 21:57 | 38.23981 | 31.68604 | 36063 ft | 459 kts | 211° |
| 2026-04-28 21:57 | 38.18371 | 31.64715 | 36067 ft | 459 kts | 211° |
| 2026-04-28 21:58 | 38.12792 | 31.60853 | 36063 ft | 459 kts | 211° |
| 2026-04-28 21:58 | 38.07173 | 31.56975 | 36054 ft | 459 kts | 211° |
| 2026-04-28 21:59 | 38.01551 | 31.53123 | 36069 ft | 459 kts | 211° |
| 2026-04-28 22:00 | 37.93113 | 31.47357 | 36067 ft | 459 kts | 211° |
| 2026-04-28 22:00 | 37.87485 | 31.43517 | 36063 ft | 459 kts | 211° |
| 2026-04-28 22:01 | 37.81858 | 31.39682 | 36066 ft | 459 kts | 211° |
| 2026-04-28 22:01 | 37.76226 | 31.35851 | 36060 ft | 460 kts | 211° |
| 2026-04-28 22:02 | 37.70593 | 31.32026 | 36049 ft | 459 kts | 211° |
| 2026-04-28 22:02 | 37.64965 | 31.28211 | 36060 ft | 460 kts | 211° |
| 2026-04-28 22:03 | 37.59325 | 31.24393 | 36037 ft | 460 kts | 211° |
| 2026-04-28 22:03 | 37.53716 | 31.20606 | 36035 ft | 460 kts | 211° |
| 2026-04-28 22:04 | 37.48079 | 31.16804 | 36037 ft | 460 kts | 211° |
| 2026-04-28 22:04 | 37.42445 | 31.13011 | 36029 ft | 459 kts | 211° |
| 2026-04-28 22:05 | 37.36814 | 31.09227 | 36016 ft | 459 kts | 211° |
| 2026-04-28 22:05 | 37.31171 | 31.05441 | 35999 ft | 459 kts | 211° |
| 2026-04-28 22:06 | 37.25535 | 31.01666 | 35992 ft | 459 kts | 211° |
| 2026-04-28 22:06 | 37.19893 | 30.97894 | 35972 ft | 459 kts | 211° |
| 2026-04-28 22:07 | 37.14265 | 30.94137 | 35975 ft | 458 kts | 211° |
| 2026-04-28 22:07 | 37.08633 | 30.90383 | 35974 ft | 458 kts | 211° |
| 2026-04-28 22:08 | 37.02997 | 30.86633 | 35961 ft | 458 kts | 211° |
| 2026-04-28 22:08 | 36.97376 | 30.82899 | 35969 ft | 458 kts | 211° |
| 2026-04-28 22:08 | 36.94733 | 30.80733 | 35940 ft | 451 kts | 227° |
| 2026-04-28 22:09 | 36.92794 | 30.77710 | 35980 ft | 443 kts | 243° |
| 2026-04-28 22:09 | 36.91544 | 30.74222 | 35963 ft | 438 kts | 257° |
| 2026-04-28 22:09 | 36.90971 | 30.70502 | 35980 ft | 436 kts | 264° |
| 2026-04-28 22:10 | 36.90209 | 30.62969 | 35962 ft | 437 kts | 265° |
| 2026-04-28 22:10 | 36.89460 | 30.55469 | 35966 ft | 439 kts | 264° |
| 2026-04-28 22:10 | 36.89052 | 30.51619 | 35568 ft | 446 kts | 264° |
| 2026-04-28 22:11 | 36.88633 | 30.47768 | 35005 ft | 446 kts | 264° |
| 2026-04-28 22:11 | 36.88212 | 30.43985 | 34353 ft | 446 kts | 264° |
| 2026-04-28 22:11 | 36.87782 | 30.40147 | 33723 ft | 445 kts | 264° |
| 2026-04-28 22:11 | 36.87353 | 30.36321 | 32990 ft | 445 kts | 264° |
| 2026-04-28 22:12 | 36.86922 | 30.32492 | 32284 ft | 445 kts | 264° |
| 2026-04-28 22:12 | 36.86491 | 30.28664 | 31529 ft | 446 kts | 263° |
| 2026-04-28 22:12 | 36.86058 | 30.24819 | 30797 ft | 447 kts | 263° |
| 2026-04-28 22:12 | 36.85770 | 30.22269 | 30284 ft | 448 kts | 263° |
| 2026-04-28 22:13 | 36.85333 | 30.18408 | 29366 ft | 450 kts | 263° |
| 2026-04-28 22:13 | 36.84892 | 30.14531 | 28470 ft | 451 kts | 263° |
| 2026-04-28 22:13 | 36.84445 | 30.10630 | 27217 ft | 458 kts | 263° |
| 2026-04-28 22:13 | 36.83988 | 30.06688 | 26251 ft | 459 kts | 263° |
| 2026-04-28 22:14 | 36.83530 | 30.02741 | 25502 ft | 457 kts | 263° |
| 2026-04-28 22:14 | 36.83077 | 29.98834 | 24806 ft | 452 kts | 263° |
| 2026-04-28 22:14 | 36.82655 | 29.94970 | 24109 ft | 448 kts | 263° |
| 2026-04-28 22:14 | 36.82253 | 29.91135 | 23384 ft | 444 kts | 263° |
| 2026-04-28 22:15 | 36.81856 | 29.87329 | 22634 ft | 440 kts | 263° |
| 2026-04-28 22:15 | 36.81459 | 29.83569 | 21958 ft | 434 kts | 263° |
| 2026-04-28 22:15 | 36.81063 | 29.79863 | 21310 ft | 428 kts | 263° |
| 2026-04-28 22:15 | 36.80668 | 29.76200 | 20647 ft | 423 kts | 263° |
| 2026-04-28 22:16 | 36.80263 | 29.72577 | 19994 ft | 419 kts | 263° |
| 2026-04-28 22:16 | 36.79853 | 29.68999 | 19349 ft | 415 kts | 263° |
| 2026-04-28 22:16 | 36.79441 | 29.65440 | 18711 ft | 412 kts | 263° |
| 2026-04-28 22:16 | 36.79033 | 29.61912 | 18031 ft | 409 kts | 262° |
| 2026-04-28 22:17 | 36.78630 | 29.58420 | 17325 ft | 405 kts | 263° |
| 2026-04-28 22:17 | 36.78235 | 29.55001 | 16693 ft | 401 kts | 263° |
| 2026-04-28 22:17 | 36.77840 | 29.51577 | 16058 ft | 397 kts | 263° |
| 2026-04-28 22:17 | 36.77447 | 29.48182 | 15419 ft | 393 kts | 263° |
| 2026-04-28 22:18 | 36.77056 | 29.44822 | 14800 ft | 390 kts | 262° |
| 2026-04-28 22:18 | 36.76390 | 29.41561 | 14172 ft | 390 kts | 246° |
| 2026-04-28 22:18 | 36.74911 | 29.38747 | 13553 ft | 389 kts | 229° |
| 2026-04-28 22:18 | 36.72986 | 29.36382 | 12888 ft | 386 kts | 224° |
| 2026-04-28 22:19 | 36.71032 | 29.34102 | 12239 ft | 383 kts | 224° |
| 2026-04-28 22:19 | 36.69089 | 29.31843 | 11629 ft | 380 kts | 224° |
| 2026-04-28 22:19 | 36.67178 | 29.29605 | 11272 ft | 371 kts | 224° |
| 2026-04-28 22:19 | 36.65345 | 29.27441 | 11115 ft | 356 kts | 224° |
| 2026-04-28 22:20 | 36.63586 | 29.25353 | 10971 ft | 343 kts | 224° |
| 2026-04-28 22:20 | 36.61889 | 29.23333 | 10812 ft | 332 kts | 224° |
| 2026-04-28 22:20 | 36.60251 | 29.21381 | 10678 ft | 321 kts | 224° |
| 2026-04-28 22:20 | 36.58667 | 29.19494 | 10535 ft | 310 kts | 224° |
| 2026-04-28 22:21 | 36.57130 | 29.17663 | 10420 ft | 301 kts | 224° |
| 2026-04-28 22:21 | 36.55661 | 29.15915 | 10292 ft | 292 kts | 223° |
| 2026-04-28 22:21 | 36.54193 | 29.14170 | 10173 ft | 284 kts | 223° |
| 2026-04-28 22:21 | 36.52804 | 29.12520 | 10042 ft | 276 kts | 223° |
| 2026-04-28 22:22 | 36.51420 | 29.10876 | 9686 ft | 277 kts | 223° |
| 2026-04-28 22:22 | 36.50018 | 29.09209 | 9267 ft | 280 kts | 223° |
| 2026-04-28 22:22 | 36.48600 | 29.07524 | 8831 ft | 284 kts | 223° |
| 2026-04-28 22:22 | 36.47163 | 29.05818 | 8394 ft | 288 kts | 223° |
| 2026-04-28 22:23 | 36.45716 | 29.04076 | 7939 ft | 291 kts | 228° |
| 2026-04-28 22:23 | 36.44715 | 29.01898 | 7462 ft | 295 kts | 257° |
| 2026-04-28 22:23 | 36.44639 | 28.99366 | 7011 ft | 296 kts | 281° |
| 2026-04-28 22:23 | 36.45148 | 28.96881 | 6548 ft | 299 kts | 287° |
| 2026-04-28 22:24 | 36.45730 | 28.94421 | 6029 ft | 295 kts | 288° |
| 2026-04-28 22:24 | 36.46295 | 28.92016 | 5760 ft | 282 kts | 287° |
| 2026-04-28 22:24 | 36.46807 | 28.89771 | 5629 ft | 266 kts | 286° |
| 2026-04-28 22:24 | 36.47293 | 28.87605 | 5337 ft | 255 kts | 287° |
| 2026-04-28 22:25 | 36.47763 | 28.85497 | 4801 ft | 252 kts | 286° |
| 2026-04-28 22:25 | 36.48298 | 28.83423 | 4132 ft | 250 kts | 295° |
| 2026-04-28 22:25 | 36.49099 | 28.81517 | 3443 ft | 249 kts | 300° |
| 2026-04-28 22:25 | 36.49945 | 28.79630 | 3116 ft | 249 kts | 299° |
| 2026-04-28 22:26 | 36.50745 | 28.77809 | 2968 ft | 232 kts | 299° |
| 2026-04-28 22:26 | 36.51484 | 28.76096 | 2833 ft | 217 kts | 299° |
| 2026-04-28 22:26 | 36.52172 | 28.74518 | 2801 ft | 200 kts | 303° |
| 2026-04-28 22:26 | 36.53194 | 28.73452 | 2797 ft | 191 kts | 345° |
| 2026-04-28 22:27 | 36.54506 | 28.73572 | 2819 ft | 193 kts | 17° |
| 2026-04-28 22:27 | 36.55782 | 28.73994 | 2765 ft | 187 kts | 12° |
| 2026-04-28 22:27 | 36.57022 | 28.74368 | 2602 ft | 181 kts | 14° |
| 2026-04-28 22:27 | 36.58200 | 28.74758 | 2392 ft | 170 kts | 15° |
| 2026-04-28 22:28 | 36.59304 | 28.75135 | 2161 ft | 159 kts | 15° |
| 2026-04-28 22:28 | 36.60343 | 28.75491 | 1995 ft | 156 kts | 15° |
| 2026-04-28 22:28 | 36.61372 | 28.75843 | 1779 ft | 153 kts | 15° |
| 2026-04-28 22:28 | 36.62395 | 28.76194 | 1565 ft | 151 kts | 15° |
| 2026-04-28 22:29 | 36.63400 | 28.76538 | 1368 ft | 150 kts | 14° |
| 2026-04-28 22:29 | 36.64409 | 28.76883 | 1173 ft | 151 kts | 15° |
| 2026-04-28 22:29 | 36.65426 | 28.77232 | 975 ft | 151 kts | 15° |
| 2026-04-28 22:29 | 36.66441 | 28.77580 | 776 ft | 151 kts | 15° |
| 2026-04-28 22:30 | 36.67454 | 28.77927 | 574 ft | 149 kts | 15° |
| 2026-04-28 22:30 | 36.68452 | 28.78286 | 368 ft | 148 kts | 15° |
| 2026-04-28 22:30 | 36.69441 | 28.78612 | 192 ft | 147 kts | 19° |
| 2026-04-28 22:30 | 36.70415 | 28.78949 | 25 ft | 144 kts | 17° |
| 2026-04-28 22:31 | 36.71289 | 28.79241 | 12 ft | 110 kts | 15° |
| 2026-04-28 22:31 | 36.71773 | 28.79407 | 11 ft | 47 kts | 16° |
| 2026-04-28 22:31 | 36.72004 | 28.79425 | 11 ft | 27 kts | 351° |
| 2026-04-28 22:31 | 36.72134 | 28.79382 | 12 ft | 15 kts | 342° |
| 2026-04-28 22:32 | 36.72228 | 28.79358 | 11 ft | 9 kts | 0° |
| 2026-04-28 22:32 | 36.72271 | 28.79337 | 11 ft | 7 kts | 300° |
| 2026-04-28 22:32 | 36.72283 | 28.79296 | 11 ft | 3 kts | 287° |
| 2026-04-28 22:32 | 36.72297 | 28.79238 | 11 ft | 10 kts | 285° |
| 2026-04-28 22:33 | 36.72291 | 28.79156 | 11 ft | 10 kts | 223° |
| 2026-04-28 22:33 | 36.72264 | 28.79089 | 11 ft | 9 kts | 281° |
| 2026-04-28 22:33 | 36.72272 | 28.79049 | 13 ft | 1 kts | 285° |
| 2026-04-28 22:33 | 36.72273 | 28.79049 | 13 ft | 0 kts | 285° |